Aviation Digital Data Service (ADDS)

Output produced by METARs form (1257 UTC 30 October 2014)
found at http://aviationweather.gov/adds/metars/
 
KLCH 301120Z 3012/3112 05007KT P6SM SKC